sensor_id;sensor_type;location;lat;lon;timestamp;P1;durP1;ratioP1;P2;durP2;ratioP2
23171;SDS011;11754;42.664;23.594;2024-03-25T00:00:43;2.33;;;0.60;;
23171;SDS011;11754;42.664;23.594;2024-03-25T00:03:09;3.25;;;0.77;;
23171;SDS011;11754;42.664;23.594;2024-03-25T00:05:34;1.35;;;0.50;;
23171;SDS011;11754;42.664;23.594;2024-03-25T00:07:59;0.80;;;0.50;;
23171;SDS011;11754;42.664;23.594;2024-03-25T00:10:25;2.25;;;0.57;;
23171;SDS011;11754;42.664;23.594;2024-03-25T00:12:50;1.52;;;0.60;;
23171;SDS011;11754;42.664;23.594;2024-03-25T00:15:19;0.98;;;0.50;;
23171;SDS011;11754;42.664;23.594;2024-03-25T00:17:45;2.50;;;0.60;;
23171;SDS011;11754;42.664;23.594;2024-03-25T00:20:12;1.58;;;0.80;;
23171;SDS011;11754;42.664;23.594;2024-03-25T00:22:38;1.75;;;0.60;;
23171;SDS011;11754;42.664;23.594;2024-03-25T00:25:03;1.08;;;0.50;;
23171;SDS011;11754;42.664;23.594;2024-03-25T00:27:29;2.08;;;0.60;;
23171;SDS011;11754;42.664;23.594;2024-03-25T00:29:55;2.20;;;0.82;;
23171;SDS011;11754;42.664;23.594;2024-03-25T00:32:21;1.90;;;0.90;;
23171;SDS011;11754;42.664;23.594;2024-03-25T00:34:46;1.40;;;0.50;;
23171;SDS011;11754;42.664;23.594;2024-03-25T00:37:12;1.15;;;0.50;;
23171;SDS011;11754;42.664;23.594;2024-03-25T00:39:37;1.70;;;0.50;;
23171;SDS011;11754;42.664;23.594;2024-03-25T00:42:03;0.60;;;0.40;;
23171;SDS011;11754;42.664;23.594;2024-03-25T00:44:29;4.25;;;1.00;;
23171;SDS011;11754;42.664;23.594;2024-03-25T00:46:54;1.75;;;0.60;;
23171;SDS011;11754;42.664;23.594;2024-03-25T00:49:20;1.50;;;0.70;;
23171;SDS011;11754;42.664;23.594;2024-03-25T00:51:46;1.25;;;0.40;;
23171;SDS011;11754;42.664;23.594;2024-03-25T00:54:12;1.10;;;0.68;;
23171;SDS011;11754;42.664;23.594;2024-03-25T00:56:37;0.70;;;0.50;;
23171;SDS011;11754;42.664;23.594;2024-03-25T00:59:02;1.65;;;0.60;;
23171;SDS011;11754;42.664;23.594;2024-03-25T01:01:29;1.65;;;0.60;;
23171;SDS011;11754;42.664;23.594;2024-03-25T01:03:55;0.85;;;0.50;;
23171;SDS011;11754;42.664;23.594;2024-03-25T01:06:21;1.25;;;0.55;;
23171;SDS011;11754;42.664;23.594;2024-03-25T01:08:46;0.70;;;0.30;;
23171;SDS011;11754;42.664;23.594;2024-03-25T01:11:11;0.63;;;0.40;;
23171;SDS011;11754;42.664;23.594;2024-03-25T01:13:37;1.23;;;0.40;;
23171;SDS011;11754;42.664;23.594;2024-03-25T01:16:02;2.20;;;0.70;;
23171;SDS011;11754;42.664;23.594;2024-03-25T01:18:28;2.63;;;0.47;;
23171;SDS011;11754;42.664;23.594;2024-03-25T01:20:53;2.13;;;0.50;;
23171;SDS011;11754;42.664;23.594;2024-03-25T01:23:19;1.05;;;0.60;;
23171;SDS011;11754;42.664;23.594;2024-03-25T01:25:45;2.22;;;0.43;;
23171;SDS011;11754;42.664;23.594;2024-03-25T01:28:10;1.45;;;0.45;;
23171;SDS011;11754;42.664;23.594;2024-03-25T01:30:36;1.95;;;0.47;;
23171;SDS011;11754;42.664;23.594;2024-03-25T01:33:04;0.65;;;0.32;;
23171;SDS011;11754;42.664;23.594;2024-03-25T01:35:30;0.75;;;0.32;;
23171;SDS011;11754;42.664;23.594;2024-03-25T01:37:56;1.05;;;0.30;;
23171;SDS011;11754;42.664;23.594;2024-03-25T01:40:21;0.80;;;0.45;;
23171;SDS011;11754;42.664;23.594;2024-03-25T01:42:59;0.80;;;0.50;;
23171;SDS011;11754;42.664;23.594;2024-03-25T01:45:27;0.77;;;0.40;;
23171;SDS011;11754;42.664;23.594;2024-03-25T01:47:55;0.70;;;0.30;;
23171;SDS011;11754;42.664;23.594;2024-03-25T01:50:22;1.27;;;0.40;;
23171;SDS011;11754;42.664;23.594;2024-03-25T01:52:49;1.50;;;0.47;;
23171;SDS011;11754;42.664;23.594;2024-03-25T01:55:15;0.63;;;0.32;;
23171;SDS011;11754;42.664;23.594;2024-03-25T01:57:46;0.57;;;0.40;;
23171;SDS011;11754;42.664;23.594;2024-03-25T02:00:12;1.80;;;0.40;;
23171;SDS011;11754;42.664;23.594;2024-03-25T02:02:39;1.63;;;0.60;;
23171;SDS011;11754;42.664;23.594;2024-03-25T02:05:07;1.25;;;0.50;;
23171;SDS011;11754;42.664;23.594;2024-03-25T02:07:34;2.00;;;0.90;;
23171;SDS011;11754;42.664;23.594;2024-03-25T02:10:02;1.90;;;0.40;;
23171;SDS011;11754;42.664;23.594;2024-03-25T02:12:28;0.80;;;0.50;;
23171;SDS011;11754;42.664;23.594;2024-03-25T02:14:55;1.08;;;0.60;;
23171;SDS011;11754;42.664;23.594;2024-03-25T02:17:20;1.05;;;0.60;;
23171;SDS011;11754;42.664;23.594;2024-03-25T02:19:46;1.38;;;0.60;;
23171;SDS011;11754;42.664;23.594;2024-03-25T02:22:11;1.38;;;0.50;;
23171;SDS011;11754;42.664;23.594;2024-03-25T02:24:36;1.13;;;0.50;;
23171;SDS011;11754;42.664;23.594;2024-03-25T02:27:03;0.65;;;0.30;;
23171;SDS011;11754;42.664;23.594;2024-03-25T02:29:33;0.90;;;0.40;;
23171;SDS011;11754;42.664;23.594;2024-03-25T02:31:59;0.80;;;0.30;;
23171;SDS011;11754;42.664;23.594;2024-03-25T02:34:24;0.82;;;0.40;;
23171;SDS011;11754;42.664;23.594;2024-03-25T02:36:50;0.60;;;0.40;;
23171;SDS011;11754;42.664;23.594;2024-03-25T02:39:16;0.75;;;0.50;;
23171;SDS011;11754;42.664;23.594;2024-03-25T02:41:41;1.10;;;0.77;;
23171;SDS011;11754;42.664;23.594;2024-03-25T02:44:07;26.80;;;15.13;;
23171;SDS011;11754;42.664;23.594;2024-03-25T02:46:32;1.23;;;0.70;;
23171;SDS011;11754;42.664;23.594;2024-03-25T02:48:58;1.10;;;0.50;;
23171;SDS011;11754;42.664;23.594;2024-03-25T02:51:24;0.32;;;0.28;;
23171;SDS011;11754;42.664;23.594;2024-03-25T02:53:49;1.70;;;0.30;;
23171;SDS011;11754;42.664;23.594;2024-03-25T02:56:15;0.55;;;0.40;;
23171;SDS011;11754;42.664;23.594;2024-03-25T02:58:40;0.70;;;0.50;;
23171;SDS011;11754;42.664;23.594;2024-03-25T03:01:05;0.60;;;0.50;;
23171;SDS011;11754;42.664;23.594;2024-03-25T03:03:31;0.70;;;0.40;;
23171;SDS011;11754;42.664;23.594;2024-03-25T03:05:56;1.30;;;0.50;;
23171;SDS011;11754;42.664;23.594;2024-03-25T03:08:21;0.30;;;0.30;;
23171;SDS011;11754;42.664;23.594;2024-03-25T03:10:47;0.77;;;0.47;;
23171;SDS011;11754;42.664;23.594;2024-03-25T03:13:12;0.70;;;0.50;;
23171;SDS011;11754;42.664;23.594;2024-03-25T03:15:38;1.27;;;0.60;;
23171;SDS011;11754;42.664;23.594;2024-03-25T03:18:08;0.60;;;0.50;;
23171;SDS011;11754;42.664;23.594;2024-03-25T03:20:33;1.20;;;0.68;;
23171;SDS011;11754;42.664;23.594;2024-03-25T03:22:58;1.00;;;0.75;;
23171;SDS011;11754;42.664;23.594;2024-03-25T03:25:24;2.55;;;0.90;;
23171;SDS011;11754;42.664;23.594;2024-03-25T03:27:49;1.60;;;1.25;;
23171;SDS011;11754;42.664;23.594;2024-03-25T03:30:15;1.45;;;1.00;;
23171;SDS011;11754;42.664;23.594;2024-03-25T03:32:40;1.23;;;0.88;;
23171;SDS011;11754;42.664;23.594;2024-03-25T03:35:05;1.30;;;0.88;;
23171;SDS011;11754;42.664;23.594;2024-03-25T03:37:32;1.10;;;0.85;;
23171;SDS011;11754;42.664;23.594;2024-03-25T03:39:57;1.40;;;1.00;;
23171;SDS011;11754;42.664;23.594;2024-03-25T03:42:23;3.42;;;1.30;;
23171;SDS011;11754;42.664;23.594;2024-03-25T03:44:48;1.58;;;1.10;;
23171;SDS011;11754;42.664;23.594;2024-03-25T03:47:13;2.13;;;1.50;;
23171;SDS011;11754;42.664;23.594;2024-03-25T03:49:39;2.22;;;1.52;;
23171;SDS011;11754;42.664;23.594;2024-03-25T03:52:04;2.90;;;2.00;;
23171;SDS011;11754;42.664;23.594;2024-03-25T03:54:30;5.72;;;3.42;;
23171;SDS011;11754;42.664;23.594;2024-03-25T03:56:55;5.38;;;4.25;;
23171;SDS011;11754;42.664;23.594;2024-03-25T03:59:20;4.47;;;3.22;;
23171;SDS011;11754;42.664;23.594;2024-03-25T04:01:46;4.50;;;3.58;;
23171;SDS011;11754;42.664;23.594;2024-03-25T04:04:11;5.10;;;4.30;;
23171;SDS011;11754;42.664;23.594;2024-03-25T04:06:37;5.13;;;3.60;;
23171;SDS011;11754;42.664;23.594;2024-03-25T04:09:05;3.40;;;2.65;;
23171;SDS011;11754;42.664;23.594;2024-03-25T04:11:31;4.10;;;3.13;;
23171;SDS011;11754;42.664;23.594;2024-03-25T04:13:57;4.47;;;3.05;;
23171;SDS011;11754;42.664;23.594;2024-03-25T04:16:22;3.95;;;3.00;;
23171;SDS011;11754;42.664;23.594;2024-03-25T04:18:48;54.53;;;31.23;;
23171;SDS011;11754;42.664;23.594;2024-03-25T04:21:13;9.27;;;6.07;;
23171;SDS011;11754;42.664;23.594;2024-03-25T04:23:39;5.20;;;3.88;;
23171;SDS011;11754;42.664;23.594;2024-03-25T04:26:06;6.15;;;4.13;;
23171;SDS011;11754;42.664;23.594;2024-03-25T04:28:32;5.95;;;4.68;;
23171;SDS011;11754;42.664;23.594;2024-03-25T04:30:58;6.13;;;4.43;;
23171;SDS011;11754;42.664;23.594;2024-03-25T04:33:23;6.05;;;4.80;;
23171;SDS011;11754;42.664;23.594;2024-03-25T04:35:48;7.07;;;5.13;;
23171;SDS011;11754;42.664;23.594;2024-03-25T04:38:17;7.47;;;5.00;;
23171;SDS011;11754;42.664;23.594;2024-03-25T04:40:43;6.40;;;5.15;;
23171;SDS011;11754;42.664;23.594;2024-03-25T04:43:09;7.50;;;4.93;;
23171;SDS011;11754;42.664;23.594;2024-03-25T04:45:34;7.60;;;5.38;;
23171;SDS011;11754;42.664;23.594;2024-03-25T04:48:00;9.43;;;5.63;;
23171;SDS011;11754;42.664;23.594;2024-03-25T04:50:25;8.50;;;5.68;;
23171;SDS011;11754;42.664;23.594;2024-03-25T04:52:51;10.18;;;6.05;;
23171;SDS011;11754;42.664;23.594;2024-03-25T04:55:17;9.32;;;6.05;;
23171;SDS011;11754;42.664;23.594;2024-03-25T04:57:42;8.60;;;6.40;;
23171;SDS011;11754;42.664;23.594;2024-03-25T05:00:08;9.32;;;6.40;;
23171;SDS011;11754;42.664;23.594;2024-03-25T05:02:36;10.18;;;6.65;;
23171;SDS011;11754;42.664;23.594;2024-03-25T05:05:02;9.00;;;6.30;;
23171;SDS011;11754;42.664;23.594;2024-03-25T05:07:28;9.13;;;6.40;;
23171;SDS011;11754;42.664;23.594;2024-03-25T05:09:53;9.88;;;7.00;;
23171;SDS011;11754;42.664;23.594;2024-03-25T05:12:19;14.57;;;7.65;;
23171;SDS011;11754;42.664;23.594;2024-03-25T05:14:45;10.18;;;7.13;;
23171;SDS011;11754;42.664;23.594;2024-03-25T05:17:10;11.02;;;7.88;;
23171;SDS011;11754;42.664;23.594;2024-03-25T05:19:36;12.50;;;8.27;;
23171;SDS011;11754;42.664;23.594;2024-03-25T05:22:01;13.23;;;8.27;;
23171;SDS011;11754;42.664;23.594;2024-03-25T05:24:27;13.57;;;8.65;;
23171;SDS011;11754;42.664;23.594;2024-03-25T05:26:53;12.52;;;8.57;;
23171;SDS011;11754;42.664;23.594;2024-03-25T05:29:18;13.30;;;8.70;;
23171;SDS011;11754;42.664;23.594;2024-03-25T05:31:59;11.10;;;8.55;;
23171;SDS011;11754;42.664;23.594;2024-03-25T05:34:26;11.70;;;8.50;;
23171;SDS011;11754;42.664;23.594;2024-03-25T05:36:52;14.02;;;8.90;;
23171;SDS011;11754;42.664;23.594;2024-03-25T05:39:18;12.73;;;8.75;;
23171;SDS011;11754;42.664;23.594;2024-03-25T05:41:44;11.15;;;8.00;;
23171;SDS011;11754;42.664;23.594;2024-03-25T05:44:09;12.00;;;8.48;;
23171;SDS011;11754;42.664;23.594;2024-03-25T05:46:35;13.10;;;8.40;;
23171;SDS011;11754;42.664;23.594;2024-03-25T05:49:03;12.05;;;8.02;;
23171;SDS011;11754;42.664;23.594;2024-03-25T05:51:29;14.02;;;8.45;;
23171;SDS011;11754;42.664;23.594;2024-03-25T05:53:55;11.48;;;7.93;;
23171;SDS011;11754;42.664;23.594;2024-03-25T05:56:21;10.95;;;8.20;;
23171;SDS011;11754;42.664;23.594;2024-03-25T05:58:47;12.80;;;8.70;;
23171;SDS011;11754;42.664;23.594;2024-03-25T06:01:13;10.93;;;8.00;;
23171;SDS011;11754;42.664;23.594;2024-03-25T06:03:38;13.90;;;8.98;;
23171;SDS011;11754;42.664;23.594;2024-03-25T06:06:04;11.40;;;8.77;;
23171;SDS011;11754;42.664;23.594;2024-03-25T06:08:29;11.00;;;8.70;;
23171;SDS011;11754;42.664;23.594;2024-03-25T06:10:59;21.70;;;13.80;;
23171;SDS011;11754;42.664;23.594;2024-03-25T06:13:25;13.85;;;9.80;;
23171;SDS011;11754;42.664;23.594;2024-03-25T06:15:51;12.48;;;8.85;;
23171;SDS011;11754;42.664;23.594;2024-03-25T06:18:17;11.05;;;8.65;;
23171;SDS011;11754;42.664;23.594;2024-03-25T06:20:42;12.10;;;9.57;;
23171;SDS011;11754;42.664;23.594;2024-03-25T06:23:08;13.55;;;9.80;;
23171;SDS011;11754;42.664;23.594;2024-03-25T06:25:33;13.27;;;8.55;;
23171;SDS011;11754;42.664;23.594;2024-03-25T06:28:00;12.43;;;9.07;;
23171;SDS011;11754;42.664;23.594;2024-03-25T06:30:26;13.15;;;9.07;;
23171;SDS011;11754;42.664;23.594;2024-03-25T06:33:10;13.40;;;9.23;;
23171;SDS011;11754;42.664;23.594;2024-03-25T06:35:53;13.18;;;9.50;;
23171;SDS011;11754;42.664;23.594;2024-03-25T06:38:19;37.45;;;29.27;;
23171;SDS011;11754;42.664;23.594;2024-03-25T06:40:47;14.52;;;10.55;;
23171;SDS011;11754;42.664;23.594;2024-03-25T06:43:13;11.82;;;8.95;;
23171;SDS011;11754;42.664;23.594;2024-03-25T06:45:41;11.65;;;8.82;;
23171;SDS011;11754;42.664;23.594;2024-03-25T06:48:06;11.32;;;8.80;;
23171;SDS011;11754;42.664;23.594;2024-03-25T06:50:32;11.60;;;8.10;;
23171;SDS011;11754;42.664;23.594;2024-03-25T06:52:57;11.85;;;8.98;;
23171;SDS011;11754;42.664;23.594;2024-03-25T06:55:22;13.30;;;8.50;;
23171;SDS011;11754;42.664;23.594;2024-03-25T06:57:52;10.55;;;8.05;;
23171;SDS011;11754;42.664;23.594;2024-03-25T07:00:18;10.23;;;8.00;;
23171;SDS011;11754;42.664;23.594;2024-03-25T07:02:45;11.40;;;8.40;;
23171;SDS011;11754;42.664;23.594;2024-03-25T07:05:10;10.45;;;7.97;;
23171;SDS011;11754;42.664;23.594;2024-03-25T07:07:35;11.05;;;8.68;;
23171;SDS011;11754;42.664;23.594;2024-03-25T07:10:01;12.20;;;8.07;;
23171;SDS011;11754;42.664;23.594;2024-03-25T07:12:27;11.35;;;8.38;;
23171;SDS011;11754;42.664;23.594;2024-03-25T07:14:53;9.93;;;8.48;;
23171;SDS011;11754;42.664;23.594;2024-03-25T07:17:19;12.82;;;8.98;;
23171;SDS011;11754;42.664;23.594;2024-03-25T07:19:46;11.07;;;8.65;;
23171;SDS011;11754;42.664;23.594;2024-03-25T07:22:12;11.43;;;8.25;;
23171;SDS011;11754;42.664;23.594;2024-03-25T07:24:38;10.45;;;8.50;;
23171;SDS011;11754;42.664;23.594;2024-03-25T07:27:03;12.18;;;7.93;;
23171;SDS011;11754;42.664;23.594;2024-03-25T07:29:28;10.38;;;8.23;;
23171;SDS011;11754;42.664;23.594;2024-03-25T07:31:54;10.88;;;7.93;;
23171;SDS011;11754;42.664;23.594;2024-03-25T07:34:19;9.82;;;7.38;;
23171;SDS011;11754;42.664;23.594;2024-03-25T07:36:45;9.85;;;7.60;;
23171;SDS011;11754;42.664;23.594;2024-03-25T07:39:10;10.45;;;8.40;;
23171;SDS011;11754;42.664;23.594;2024-03-25T07:41:39;9.77;;;8.10;;
23171;SDS011;11754;42.664;23.594;2024-03-25T07:44:04;13.27;;;8.65;;
23171;SDS011;11754;42.664;23.594;2024-03-25T07:46:29;10.13;;;8.05;;
23171;SDS011;11754;42.664;23.594;2024-03-25T07:48:55;11.18;;;7.57;;
23171;SDS011;11754;42.664;23.594;2024-03-25T07:51:21;11.07;;;7.90;;
23171;SDS011;11754;42.664;23.594;2024-03-25T07:53:47;13.18;;;7.55;;
23171;SDS011;11754;42.664;23.594;2024-03-25T07:56:12;14.40;;;8.40;;
23171;SDS011;11754;42.664;23.594;2024-03-25T07:58:38;13.15;;;8.20;;
23171;SDS011;11754;42.664;23.594;2024-03-25T08:01:03;14.52;;;8.38;;
23171;SDS011;11754;42.664;23.594;2024-03-25T08:03:29;10.63;;;7.82;;
23171;SDS011;11754;42.664;23.594;2024-03-25T08:05:54;14.07;;;8.93;;
23171;SDS011;11754;42.664;23.594;2024-03-25T08:08:20;14.68;;;9.10;;
23171;SDS011;11754;42.664;23.594;2024-03-25T08:10:45;10.75;;;7.70;;
23171;SDS011;11754;42.664;23.594;2024-03-25T08:13:11;9.30;;;7.40;;
23171;SDS011;11754;42.664;23.594;2024-03-25T08:15:36;9.27;;;7.10;;
23171;SDS011;11754;42.664;23.594;2024-03-25T08:18:02;11.50;;;8.27;;
23171;SDS011;11754;42.664;23.594;2024-03-25T08:20:27;12.48;;;8.07;;
23171;SDS011;11754;42.664;23.594;2024-03-25T08:22:53;13.90;;;8.55;;
23171;SDS011;11754;42.664;23.594;2024-03-25T08:25:18;14.27;;;8.60;;
23171;SDS011;11754;42.664;23.594;2024-03-25T08:27:43;11.70;;;7.50;;
23171;SDS011;11754;42.664;23.594;2024-03-25T08:30:09;10.07;;;7.40;;
23171;SDS011;11754;42.664;23.594;2024-03-25T08:32:35;12.85;;;6.97;;
23171;SDS011;11754;42.664;23.594;2024-03-25T08:35:00;11.90;;;7.75;;
23171;SDS011;11754;42.664;23.594;2024-03-25T08:37:26;12.93;;;7.22;;
23171;SDS011;11754;42.664;23.594;2024-03-25T08:39:51;11.95;;;7.22;;
23171;SDS011;11754;42.664;23.594;2024-03-25T08:42:17;11.65;;;6.88;;
23171;SDS011;11754;42.664;23.594;2024-03-25T08:44:42;10.27;;;6.97;;
23171;SDS011;11754;42.664;23.594;2024-03-25T08:47:07;10.27;;;6.13;;
23171;SDS011;11754;42.664;23.594;2024-03-25T08:49:33;13.27;;;6.32;;
23171;SDS011;11754;42.664;23.594;2024-03-25T08:51:58;10.05;;;5.57;;
23171;SDS011;11754;42.664;23.594;2024-03-25T08:54:24;7.53;;;6.40;;
23171;SDS011;11754;42.664;23.594;2024-03-25T08:56:49;8.32;;;6.10;;
23171;SDS011;11754;42.664;23.594;2024-03-25T08:59:14;6.90;;;6.20;;
23171;SDS011;11754;42.664;23.594;2024-03-25T09:01:40;10.38;;;5.88;;
23171;SDS011;11754;42.664;23.594;2024-03-25T09:04:05;8.10;;;6.47;;
23171;SDS011;11754;42.664;23.594;2024-03-25T09:06:31;10.50;;;6.80;;
23171;SDS011;11754;42.664;23.594;2024-03-25T09:08:56;7.78;;;5.57;;
23171;SDS011;11754;42.664;23.594;2024-03-25T09:11:40;6.47;;;5.20;;
23171;SDS011;11754;42.664;23.594;2024-03-25T09:14:05;7.10;;;4.93;;
23171;SDS011;11754;42.664;23.594;2024-03-25T09:16:31;5.53;;;5.03;;
23171;SDS011;11754;42.664;23.594;2024-03-25T09:18:57;5.82;;;5.05;;
23171;SDS011;11754;42.664;23.594;2024-03-25T09:21:22;7.60;;;5.20;;
23171;SDS011;11754;42.664;23.594;2024-03-25T09:23:49;6.70;;;5.70;;
23171;SDS011;11754;42.664;23.594;2024-03-25T09:26:15;7.90;;;4.88;;
23171;SDS011;11754;42.664;23.594;2024-03-25T09:28:40;9.70;;;5.20;;
23171;SDS011;11754;42.664;23.594;2024-03-25T09:31:06;7.57;;;5.38;;
23171;SDS011;11754;42.664;23.594;2024-03-25T09:33:31;9.57;;;5.90;;
23171;SDS011;11754;42.664;23.594;2024-03-25T09:35:56;8.88;;;5.63;;
23171;SDS011;11754;42.664;23.594;2024-03-25T09:38:22;9.00;;;5.95;;
23171;SDS011;11754;42.664;23.594;2024-03-25T09:40:47;8.27;;;5.13;;
23171;SDS011;11754;42.664;23.594;2024-03-25T09:43:20;6.57;;;5.22;;
23171;SDS011;11754;42.664;23.594;2024-03-25T09:45:49;6.18;;;4.65;;
23171;SDS011;11754;42.664;23.594;2024-03-25T09:48:17;5.72;;;4.22;;
23171;SDS011;11754;42.664;23.594;2024-03-25T09:50:46;6.35;;;4.45;;
23171;SDS011;11754;42.664;23.594;2024-03-25T09:53:12;5.85;;;4.50;;
23171;SDS011;11754;42.664;23.594;2024-03-25T09:55:37;7.25;;;3.83;;
23171;SDS011;11754;42.664;23.594;2024-03-25T09:58:03;5.15;;;4.18;;
23171;SDS011;11754;42.664;23.594;2024-03-25T10:00:30;5.45;;;3.50;;
23171;SDS011;11754;42.664;23.594;2024-03-25T10:02:55;4.22;;;3.20;;
23171;SDS011;11754;42.664;23.594;2024-03-25T10:05:21;7.03;;;3.17;;
23171;SDS011;11754;42.664;23.594;2024-03-25T10:07:46;3.05;;;2.63;;
23171;SDS011;11754;42.664;23.594;2024-03-25T10:10:12;3.25;;;2.65;;
23171;SDS011;11754;42.664;23.594;2024-03-25T10:12:37;4.20;;;2.72;;
23171;SDS011;11754;42.664;23.594;2024-03-25T10:15:03;6.30;;;3.17;;
23171;SDS011;11754;42.664;23.594;2024-03-25T10:17:32;6.53;;;3.70;;
23171;SDS011;11754;42.664;23.594;2024-03-25T10:19:57;8.10;;;4.35;;
23171;SDS011;11754;42.664;23.594;2024-03-25T10:22:23;3.78;;;3.10;;
23171;SDS011;11754;42.664;23.594;2024-03-25T10:24:49;4.60;;;3.33;;
23171;SDS011;11754;42.664;23.594;2024-03-25T10:27:17;8.20;;;3.72;;
23171;SDS011;11754;42.664;23.594;2024-03-25T10:29:47;8.43;;;3.78;;
23171;SDS011;11754;42.664;23.594;2024-03-25T10:32:13;4.32;;;3.30;;
23171;SDS011;11754;42.664;23.594;2024-03-25T10:34:41;3.50;;;2.67;;
23171;SDS011;11754;42.664;23.594;2024-03-25T10:37:08;3.92;;;2.72;;
23171;SDS011;11754;42.664;23.594;2024-03-25T10:39:35;4.95;;;3.10;;
23171;SDS011;11754;42.664;23.594;2024-03-25T10:42:04;9.50;;;3.65;;
23171;SDS011;11754;42.664;23.594;2024-03-25T10:44:31;7.20;;;3.58;;
23171;SDS011;11754;42.664;23.594;2024-03-25T10:47:01;4.82;;;3.55;;
23171;SDS011;11754;42.664;23.594;2024-03-25T10:49:37;6.03;;;3.60;;
23171;SDS011;11754;42.664;23.594;2024-03-25T10:52:07;8.68;;;4.47;;
23171;SDS011;11754;42.664;23.594;2024-03-25T10:54:35;7.78;;;4.50;;
23171;SDS011;11754;42.664;23.594;2024-03-25T10:57:03;3.92;;;3.33;;
23171;SDS011;11754;42.664;23.594;2024-03-25T10:59:29;4.35;;;2.70;;
23171;SDS011;11754;42.664;23.594;2024-03-25T11:01:55;4.70;;;3.45;;
23171;SDS011;11754;42.664;23.594;2024-03-25T11:04:21;5.22;;;3.58;;
23171;SDS011;11754;42.664;23.594;2024-03-25T11:06:48;5.38;;;3.42;;
23171;SDS011;11754;42.664;23.594;2024-03-25T11:09:25;4.18;;;2.28;;
23171;SDS011;11754;42.664;23.594;2024-03-25T11:11:51;6.38;;;2.90;;
23171;SDS011;11754;42.664;23.594;2024-03-25T11:14:17;4.70;;;2.78;;
23171;SDS011;11754;42.664;23.594;2024-03-25T11:16:43;7.28;;;2.50;;
23171;SDS011;11754;42.664;23.594;2024-03-25T11:19:10;2.47;;;2.00;;
23171;SDS011;11754;42.664;23.594;2024-03-25T11:21:36;4.93;;;2.72;;
23171;SDS011;11754;42.664;23.594;2024-03-25T11:24:07;5.75;;;2.30;;
23171;SDS011;11754;42.664;23.594;2024-03-25T11:29:01;5.88;;;1.85;;
23171;SDS011;11754;42.664;23.594;2024-03-25T11:31:27;2.17;;;1.80;;
23171;SDS011;11754;42.664;23.594;2024-03-25T11:33:53;3.45;;;2.17;;
23171;SDS011;11754;42.664;23.594;2024-03-25T11:36:18;7.53;;;3.05;;
23171;SDS011;11754;42.664;23.594;2024-03-25T11:38:57;14.43;;;5.95;;
23171;SDS011;11754;42.664;23.594;2024-03-25T11:41:23;4.15;;;3.00;;
23171;SDS011;11754;42.664;23.594;2024-03-25T11:43:48;2.50;;;1.83;;
23171;SDS011;11754;42.664;23.594;2024-03-25T11:46:17;3.13;;;2.15;;
23171;SDS011;11754;42.664;23.594;2024-03-25T11:48:43;2.50;;;1.77;;
23171;SDS011;11754;42.664;23.594;2024-03-25T11:51:11;2.38;;;1.40;;
23171;SDS011;11754;42.664;23.594;2024-03-25T11:53:37;1.75;;;1.38;;
23171;SDS011;11754;42.664;23.594;2024-03-25T11:56:03;1.67;;;1.27;;
23171;SDS011;11754;42.664;23.594;2024-03-25T11:58:28;6.63;;;2.20;;
23171;SDS011;11754;42.664;23.594;2024-03-25T12:00:54;4.32;;;2.20;;
23171;SDS011;11754;42.664;23.594;2024-03-25T12:03:21;2.78;;;2.10;;
23171;SDS011;11754;42.664;23.594;2024-03-25T12:05:47;3.00;;;2.03;;
23171;SDS011;11754;42.664;23.594;2024-03-25T12:08:12;5.55;;;2.10;;
23171;SDS011;11754;42.664;23.594;2024-03-25T12:10:38;6.22;;;3.08;;
23171;SDS011;11754;42.664;23.594;2024-03-25T12:13:23;5.13;;;2.55;;
23171;SDS011;11754;42.664;23.594;2024-03-25T12:15:50;4.95;;;2.88;;
23171;SDS011;11754;42.664;23.594;2024-03-25T12:18:16;11.32;;;7.00;;
23171;SDS011;11754;42.664;23.594;2024-03-25T12:20:44;4.60;;;3.25;;
23171;SDS011;11754;42.664;23.594;2024-03-25T12:23:10;12.68;;;7.72;;
23171;SDS011;11754;42.664;23.594;2024-03-25T12:25:36;2.83;;;2.20;;
23171;SDS011;11754;42.664;23.594;2024-03-25T12:28:01;5.15;;;3.45;;
23171;SDS011;11754;42.664;23.594;2024-03-25T12:30:32;3.65;;;2.35;;
23171;SDS011;11754;42.664;23.594;2024-03-25T12:32:58;4.63;;;1.70;;
23171;SDS011;11754;42.664;23.594;2024-03-25T12:35:25;2.55;;;1.92;;
23171;SDS011;11754;42.664;23.594;2024-03-25T12:37:51;4.10;;;1.88;;
23171;SDS011;11754;42.664;23.594;2024-03-25T12:40:26;3.45;;;2.13;;
23171;SDS011;11754;42.664;23.594;2024-03-25T12:42:53;2.40;;;2.10;;
23171;SDS011;11754;42.664;23.594;2024-03-25T12:45:19;4.30;;;2.13;;
23171;SDS011;11754;42.664;23.594;2024-03-25T12:47:45;3.47;;;1.80;;
23171;SDS011;11754;42.664;23.594;2024-03-25T12:50:11;5.03;;;2.03;;
23171;SDS011;11754;42.664;23.594;2024-03-25T12:52:37;3.55;;;1.75;;
23171;SDS011;11754;42.664;23.594;2024-03-25T12:55:02;5.40;;;2.50;;
23171;SDS011;11754;42.664;23.594;2024-03-25T12:57:28;2.45;;;1.67;;
23171;SDS011;11754;42.664;23.594;2024-03-25T12:59:54;5.15;;;2.00;;
23171;SDS011;11754;42.664;23.594;2024-03-25T13:02:19;2.50;;;1.85;;
23171;SDS011;11754;42.664;23.594;2024-03-25T13:04:45;4.93;;;1.73;;
23171;SDS011;11754;42.664;23.594;2024-03-25T13:07:10;3.90;;;1.50;;
23171;SDS011;11754;42.664;23.594;2024-03-25T13:09:36;4.38;;;1.58;;
23171;SDS011;11754;42.664;23.594;2024-03-25T13:12:01;2.38;;;1.42;;
23171;SDS011;11754;42.664;23.594;2024-03-25T13:14:27;3.55;;;1.50;;
23171;SDS011;11754;42.664;23.594;2024-03-25T13:16:52;9.55;;;1.60;;
23171;SDS011;11754;42.664;23.594;2024-03-25T13:19:18;6.78;;;1.50;;
23171;SDS011;11754;42.664;23.594;2024-03-25T13:21:43;5.05;;;1.10;;
23171;SDS011;11754;42.664;23.594;2024-03-25T13:24:09;6.50;;;1.30;;
23171;SDS011;11754;42.664;23.594;2024-03-25T13:26:35;5.68;;;1.25;;
23171;SDS011;11754;42.664;23.594;2024-03-25T13:29:00;1.52;;;1.00;;
23171;SDS011;11754;42.664;23.594;2024-03-25T13:31:26;3.25;;;1.05;;
23171;SDS011;11754;42.664;23.594;2024-03-25T13:33:51;6.03;;;1.33;;
23171;SDS011;11754;42.664;23.594;2024-03-25T13:36:17;4.50;;;1.15;;
23171;SDS011;11754;42.664;23.594;2024-03-25T13:38:44;3.92;;;1.60;;
23171;SDS011;11754;42.664;23.594;2024-03-25T13:41:09;4.85;;;1.30;;
23171;SDS011;11754;42.664;23.594;2024-03-25T13:43:35;3.58;;;0.90;;
23171;SDS011;11754;42.664;23.594;2024-03-25T13:46:00;3.83;;;1.05;;
23171;SDS011;11754;42.664;23.594;2024-03-25T13:48:26;4.05;;;1.00;;
23171;SDS011;11754;42.664;23.594;2024-03-25T13:50:53;3.38;;;1.20;;
23171;SDS011;11754;42.664;23.594;2024-03-25T13:53:19;2.60;;;1.10;;
23171;SDS011;11754;42.664;23.594;2024-03-25T13:55:45;4.60;;;1.40;;
23171;SDS011;11754;42.664;23.594;2024-03-25T13:58:10;2.33;;;1.08;;
23171;SDS011;11754;42.664;23.594;2024-03-25T14:00:36;4.50;;;1.73;;
23171;SDS011;11754;42.664;23.594;2024-03-25T14:03:02;5.90;;;1.50;;
23171;SDS011;11754;42.664;23.594;2024-03-25T14:05:28;5.07;;;1.80;;
23171;SDS011;11754;42.664;23.594;2024-03-25T14:07:53;3.88;;;1.67;;
23171;SDS011;11754;42.664;23.594;2024-03-25T14:10:19;3.60;;;2.05;;
23171;SDS011;11754;42.664;23.594;2024-03-25T14:12:44;5.55;;;1.80;;
23171;SDS011;11754;42.664;23.594;2024-03-25T14:15:10;5.20;;;2.20;;
23171;SDS011;11754;42.664;23.594;2024-03-25T14:17:36;3.33;;;2.00;;
23171;SDS011;11754;42.664;23.594;2024-03-25T14:20:01;4.50;;;1.90;;
23171;SDS011;11754;42.664;23.594;2024-03-25T14:22:31;6.43;;;1.85;;
23171;SDS011;11754;42.664;23.594;2024-03-25T14:24:56;4.13;;;1.40;;
23171;SDS011;11754;42.664;23.594;2024-03-25T14:27:25;1.73;;;1.13;;